sensor_id;sensor_type;location;lat;lon;timestamp;temperature;humidity
14877;DHT22;69691;48.172;17.070;2023-07-08T00:00:53;19.80;55.30
14877;DHT22;69691;48.172;17.070;2023-07-08T00:03:20;19.90;55.50
14877;DHT22;69691;48.172;17.070;2023-07-08T00:05:47;19.90;55.50
14877;DHT22;69691;48.172;17.070;2023-07-08T00:08:14;19.90;55.60
14877;DHT22;69691;48.172;17.070;2023-07-08T00:10:41;20.00;55.80
14877;DHT22;69691;48.172;17.070;2023-07-08T00:13:08;20.00;55.30
14877;DHT22;69691;48.172;17.070;2023-07-08T00:15:34;20.00;55.60
14877;DHT22;69691;48.172;17.070;2023-07-08T00:18:09;20.10;55.60
14877;DHT22;69691;48.172;17.070;2023-07-08T00:20:40;20.10;55.60
14877;DHT22;69691;48.172;17.070;2023-07-08T00:23:09;20.10;55.60
14877;DHT22;69691;48.172;17.070;2023-07-08T00:25:35;20.10;55.70
14877;DHT22;69691;48.172;17.070;2023-07-08T00:28:01;20.10;55.70
14877;DHT22;69691;48.172;17.070;2023-07-08T00:30:29;20.10;55.80
14877;DHT22;69691;48.172;17.070;2023-07-08T00:32:57;20.00;55.90
14877;DHT22;69691;48.172;17.070;2023-07-08T00:35:40;19.90;56.10
14877;DHT22;69691;48.172;17.070;2023-07-08T00:38:15;19.90;56.10
14877;DHT22;69691;48.172;17.070;2023-07-08T00:40:51;19.90;56.30
14877;DHT22;69691;48.172;17.070;2023-07-08T00:43:35;19.80;56.20
14877;DHT22;69691;48.172;17.070;2023-07-08T00:46:29;19.80;56.20
14877;DHT22;69691;48.172;17.070;2023-07-08T00:51:35;19.70;56.50
14877;DHT22;69691;48.172;17.070;2023-07-08T00:54:11;19.70;56.40
14877;DHT22;69691;48.172;17.070;2023-07-08T00:56:44;19.70;56.60
14877;DHT22;69691;48.172;17.070;2023-07-08T00:59:39;19.60;56.60
14877;DHT22;69691;48.172;17.070;2023-07-08T01:02:11;19.50;57.00
14877;DHT22;69691;48.172;17.070;2023-07-08T01:04:50;19.50;56.90
14877;DHT22;69691;48.172;17.070;2023-07-08T01:07:19;19.50;57.20
14877;DHT22;69691;48.172;17.070;2023-07-08T01:09:50;19.40;57.20
14877;DHT22;69691;48.172;17.070;2023-07-08T01:12:23;19.40;57.30
14877;DHT22;69691;48.172;17.070;2023-07-08T01:14:53;19.40;57.60
14877;DHT22;69691;48.172;17.070;2023-07-08T01:17:21;19.30;57.70
14877;DHT22;69691;48.172;17.070;2023-07-08T01:19:49;19.20;58.20
14877;DHT22;69691;48.172;17.070;2023-07-08T01:22:16;19.20;58.50
14877;DHT22;69691;48.172;17.070;2023-07-08T01:24:44;19.10;58.50
14877;DHT22;69691;48.172;17.070;2023-07-08T01:27:13;19.10;58.90
14877;DHT22;69691;48.172;17.070;2023-07-08T01:29:41;19.10;59.10
14877;DHT22;69691;48.172;17.070;2023-07-08T01:32:11;19.00;59.30
14877;DHT22;69691;48.172;17.070;2023-07-08T01:34:44;18.90;59.80
14877;DHT22;69691;48.172;17.070;2023-07-08T01:37:31;18.90;60.10
14877;DHT22;69691;48.172;17.070;2023-07-08T01:40:33;18.80;60.50
14877;DHT22;69691;48.172;17.070;2023-07-08T01:43:01;18.70;61.20
14877;DHT22;69691;48.172;17.070;2023-07-08T01:45:38;18.60;61.60
14877;DHT22;69691;48.172;17.070;2023-07-08T01:48:08;18.60;62.00
14877;DHT22;69691;48.172;17.070;2023-07-08T01:50:39;18.50;62.50
14877;DHT22;69691;48.172;17.070;2023-07-08T01:53:39;18.50;62.70
14877;DHT22;69691;48.172;17.070;2023-07-08T01:56:07;18.50;62.70
14877;DHT22;69691;48.172;17.070;2023-07-08T01:58:34;18.40;62.70
14877;DHT22;69691;48.172;17.070;2023-07-08T02:01:01;18.40;63.40
14877;DHT22;69691;48.172;17.070;2023-07-08T02:03:27;18.40;63.60
14877;DHT22;69691;48.172;17.070;2023-07-08T02:05:55;18.30;63.90
14877;DHT22;69691;48.172;17.070;2023-07-08T02:08:21;18.30;64.20
14877;DHT22;69691;48.172;17.070;2023-07-08T02:10:53;18.30;64.40
14877;DHT22;69691;48.172;17.070;2023-07-08T02:13:22;18.30;64.30
14877;DHT22;69691;48.172;17.070;2023-07-08T02:15:48;18.20;64.40
14877;DHT22;69691;48.172;17.070;2023-07-08T02:18:15;18.20;64.80
14877;DHT22;69691;48.172;17.070;2023-07-08T02:20:43;18.10;65.20
14877;DHT22;69691;48.172;17.070;2023-07-08T02:23:08;18.10;65.60
14877;DHT22;69691;48.172;17.070;2023-07-08T02:25:34;18.00;66.00
14877;DHT22;69691;48.172;17.070;2023-07-08T02:28:00;18.00;66.20
14877;DHT22;69691;48.172;17.070;2023-07-08T02:30:27;18.00;66.40
14877;DHT22;69691;48.172;17.070;2023-07-08T02:32:53;17.90;66.70
14877;DHT22;69691;48.172;17.070;2023-07-08T02:35:29;17.90;67.20
14877;DHT22;69691;48.172;17.070;2023-07-08T02:37:56;17.90;67.70
14877;DHT22;69691;48.172;17.070;2023-07-08T02:40:24;17.80;68.00
14877;DHT22;69691;48.172;17.070;2023-07-08T02:42:51;17.80;68.40
14877;DHT22;69691;48.172;17.070;2023-07-08T02:45:17;17.70;68.50
14877;DHT22;69691;48.172;17.070;2023-07-08T02:47:43;17.70;68.70
14877;DHT22;69691;48.172;17.070;2023-07-08T02:50:10;17.70;69.00
14877;DHT22;69691;48.172;17.070;2023-07-08T02:52:37;17.70;69.50
14877;DHT22;69691;48.172;17.070;2023-07-08T02:55:03;17.60;69.70
14877;DHT22;69691;48.172;17.070;2023-07-08T02:57:29;17.60;69.90
14877;DHT22;69691;48.172;17.070;2023-07-08T02:59:55;17.60;70.30
14877;DHT22;69691;48.172;17.070;2023-07-08T03:02:22;17.60;70.50
14877;DHT22;69691;48.172;17.070;2023-07-08T03:04:49;17.60;70.60
14877;DHT22;69691;48.172;17.070;2023-07-08T03:07:17;17.60;70.60
14877;DHT22;69691;48.172;17.070;2023-07-08T03:09:43;17.60;70.70
14877;DHT22;69691;48.172;17.070;2023-07-08T03:12:10;17.60;70.90
14877;DHT22;69691;48.172;17.070;2023-07-08T03:14:37;17.60;71.30
14877;DHT22;69691;48.172;17.070;2023-07-08T03:17:04;17.60;71.40
14877;DHT22;69691;48.172;17.070;2023-07-08T03:19:30;17.60;71.50
14877;DHT22;69691;48.172;17.070;2023-07-08T03:21:56;17.60;71.70
14877;DHT22;69691;48.172;17.070;2023-07-08T03:24:23;17.60;71.90
14877;DHT22;69691;48.172;17.070;2023-07-08T03:26:49;17.60;71.80
14877;DHT22;69691;48.172;17.070;2023-07-08T03:29:21;17.60;71.80
14877;DHT22;69691;48.172;17.070;2023-07-08T03:31:47;17.60;71.60
14877;DHT22;69691;48.172;17.070;2023-07-08T03:34:15;17.70;71.50
14877;DHT22;69691;48.172;17.070;2023-07-08T03:36:47;17.80;71.70
14877;DHT22;69691;48.172;17.070;2023-07-08T03:39:23;17.80;71.50
14877;DHT22;69691;48.172;17.070;2023-07-08T03:41:51;17.80;71.60
14877;DHT22;69691;48.172;17.070;2023-07-08T03:44:18;17.80;71.80
14877;DHT22;69691;48.172;17.070;2023-07-08T03:46:46;17.90;71.80
14877;DHT22;69691;48.172;17.070;2023-07-08T03:49:17;17.90;71.50
14877;DHT22;69691;48.172;17.070;2023-07-08T03:51:48;18.00;71.70
14877;DHT22;69691;48.172;17.070;2023-07-08T03:54:18;18.00;71.60
14877;DHT22;69691;48.172;17.070;2023-07-08T03:56:44;18.10;71.50
14877;DHT22;69691;48.172;17.070;2023-07-08T03:59:11;18.10;71.40
14877;DHT22;69691;48.172;17.070;2023-07-08T04:01:37;18.20;71.30
14877;DHT22;69691;48.172;17.070;2023-07-08T04:04:13;18.30;71.30
14877;DHT22;69691;48.172;17.070;2023-07-08T04:06:41;18.30;70.90
14877;DHT22;69691;48.172;17.070;2023-07-08T04:09:07;18.40;70.70
14877;DHT22;69691;48.172;17.070;2023-07-08T04:11:33;18.50;70.90
14877;DHT22;69691;48.172;17.070;2023-07-08T04:13:59;18.50;70.80
14877;DHT22;69691;48.172;17.070;2023-07-08T04:16:28;18.60;70.90
14877;DHT22;69691;48.172;17.070;2023-07-08T04:18:55;18.70;70.90
14877;DHT22;69691;48.172;17.070;2023-07-08T04:21:23;18.70;70.70
14877;DHT22;69691;48.172;17.070;2023-07-08T04:23:52;18.90;70.40
14877;DHT22;69691;48.172;17.070;2023-07-08T04:26:18;19.00;70.00
14877;DHT22;69691;48.172;17.070;2023-07-08T04:28:45;19.00;69.70
14877;DHT22;69691;48.172;17.070;2023-07-08T04:31:10;19.10;69.70
14877;DHT22;69691;48.172;17.070;2023-07-08T04:33:36;19.20;69.60
14877;DHT22;69691;48.172;17.070;2023-07-08T04:36:03;19.30;70.00
14877;DHT22;69691;48.172;17.070;2023-07-08T04:38:29;19.40;70.00
14877;DHT22;69691;48.172;17.070;2023-07-08T04:40:55;19.50;69.90
14877;DHT22;69691;48.172;17.070;2023-07-08T04:43:22;19.60;69.30
14877;DHT22;69691;48.172;17.070;2023-07-08T04:45:51;19.70;68.80
14877;DHT22;69691;48.172;17.070;2023-07-08T04:48:18;19.80;67.00
14877;DHT22;69691;48.172;17.070;2023-07-08T04:50:49;20.00;65.70
14877;DHT22;69691;48.172;17.070;2023-07-08T04:53:16;20.10;65.30
14877;DHT22;69691;48.172;17.070;2023-07-08T04:55:51;20.20;63.90
14877;DHT22;69691;48.172;17.070;2023-07-08T04:58:20;20.30;62.50
14877;DHT22;69691;48.172;17.070;2023-07-08T05:00:46;20.50;60.80
14877;DHT22;69691;48.172;17.070;2023-07-08T05:03:12;20.60;61.40
14877;DHT22;69691;48.172;17.070;2023-07-08T05:05:38;20.70;60.50
14877;DHT22;69691;48.172;17.070;2023-07-08T05:08:05;20.90;59.90
14877;DHT22;69691;48.172;17.070;2023-07-08T05:10:31;21.00;59.20
14877;DHT22;69691;48.172;17.070;2023-07-08T05:12:57;21.10;58.70
14877;DHT22;69691;48.172;17.070;2023-07-08T05:15:23;21.30;58.20
14877;DHT22;69691;48.172;17.070;2023-07-08T05:17:50;21.40;57.40
14877;DHT22;69691;48.172;17.070;2023-07-08T05:20:17;22.00;57.50
14877;DHT22;69691;48.172;17.070;2023-07-08T05:22:47;23.00;55.80
14877;DHT22;69691;48.172;17.070;2023-07-08T05:25:14;24.30;53.10
14877;DHT22;69691;48.172;17.070;2023-07-08T05:27:41;25.20;50.60
14877;DHT22;69691;48.172;17.070;2023-07-08T05:30:10;26.10;48.70
14877;DHT22;69691;48.172;17.070;2023-07-08T05:32:38;26.90;46.50
14877;DHT22;69691;48.172;17.070;2023-07-08T05:35:04;27.50;45.40
14877;DHT22;69691;48.172;17.070;2023-07-08T05:37:30;28.20;43.50
14877;DHT22;69691;48.172;17.070;2023-07-08T05:39:56;28.50;42.30
14877;DHT22;69691;48.172;17.070;2023-07-08T05:42:23;28.80;42.00
14877;DHT22;69691;48.172;17.070;2023-07-08T05:44:50;29.30;40.90
14877;DHT22;69691;48.172;17.070;2023-07-08T05:47:17;29.60;40.50
14877;DHT22;69691;48.172;17.070;2023-07-08T05:49:43;30.10;39.30
14877;DHT22;69691;48.172;17.070;2023-07-08T05:52:09;30.30;38.60
14877;DHT22;69691;48.172;17.070;2023-07-08T05:54:37;30.20;38.00
14877;DHT22;69691;48.172;17.070;2023-07-08T05:57:08;30.10;38.40
14877;DHT22;69691;48.172;17.070;2023-07-08T05:59:36;30.00;38.30
14877;DHT22;69691;48.172;17.070;2023-07-08T06:02:05;30.20;38.40
14877;DHT22;69691;48.172;17.070;2023-07-08T06:04:32;30.40;37.90
14877;DHT22;69691;48.172;17.070;2023-07-08T06:06:58;30.50;37.50
14877;DHT22;69691;48.172;17.070;2023-07-08T06:09:23;30.60;37.50
14877;DHT22;69691;48.172;17.070;2023-07-08T06:11:49;30.90;36.80
14877;DHT22;69691;48.172;17.070;2023-07-08T06:14:16;30.80;36.90
14877;DHT22;69691;48.172;17.070;2023-07-08T06:16:41;31.00;36.70
14877;DHT22;69691;48.172;17.070;2023-07-08T06:19:07;31.20;37.00
14877;DHT22;69691;48.172;17.070;2023-07-08T06:21:34;31.20;36.60
14877;DHT22;69691;48.172;17.070;2023-07-08T06:24:00;31.40;36.30
14877;DHT22;69691;48.172;17.070;2023-07-08T06:26:25;31.60;36.00
14877;DHT22;69691;48.172;17.070;2023-07-08T06:28:51;31.60;35.50
14877;DHT22;69691;48.172;17.070;2023-07-08T06:31:17;31.20;35.90
14877;DHT22;69691;48.172;17.070;2023-07-08T06:33:43;31.00;36.60
14877;DHT22;69691;48.172;17.070;2023-07-08T06:36:09;31.20;36.60
14877;DHT22;69691;48.172;17.070;2023-07-08T06:38:34;31.30;36.40
14877;DHT22;69691;48.172;17.070;2023-07-08T06:41:00;31.40;36.50
14877;DHT22;69691;48.172;17.070;2023-07-08T06:43:26;31.60;35.80
14877;DHT22;69691;48.172;17.070;2023-07-08T06:46:03;31.50;36.00
14877;DHT22;69691;48.172;17.070;2023-07-08T06:48:30;31.40;36.60
14877;DHT22;69691;48.172;17.070;2023-07-08T06:50:57;31.50;36.10
14877;DHT22;69691;48.172;17.070;2023-07-08T06:53:23;31.20;36.50
14877;DHT22;69691;48.172;17.070;2023-07-08T06:55:49;31.50;36.60
14877;DHT22;69691;48.172;17.070;2023-07-08T06:58:16;31.60;36.20
14877;DHT22;69691;48.172;17.070;2023-07-08T07:00:45;31.70;36.00
14877;DHT22;69691;48.172;17.070;2023-07-08T07:03:12;31.80;35.60
14877;DHT22;69691;48.172;17.070;2023-07-08T07:05:38;31.40;35.70
14877;DHT22;69691;48.172;17.070;2023-07-08T07:08:05;31.20;36.00
14877;DHT22;69691;48.172;17.070;2023-07-08T07:10:32;31.00;36.60
14877;DHT22;69691;48.172;17.070;2023-07-08T07:12:59;30.90;36.50
14877;DHT22;69691;48.172;17.070;2023-07-08T07:15:25;30.90;36.70
14877;DHT22;69691;48.172;17.070;2023-07-08T07:17:51;31.00;36.40
14877;DHT22;69691;48.172;17.070;2023-07-08T07:20:17;30.90;37.00
14877;DHT22;69691;48.172;17.070;2023-07-08T07:22:43;30.90;36.70
14877;DHT22;69691;48.172;17.070;2023-07-08T07:25:09;31.00;37.50
14877;DHT22;69691;48.172;17.070;2023-07-08T07:27:35;31.20;36.40
14877;DHT22;69691;48.172;17.070;2023-07-08T07:30:01;31.00;36.30
14877;DHT22;69691;48.172;17.070;2023-07-08T07:32:27;30.80;36.90
14877;DHT22;69691;48.172;17.070;2023-07-08T07:34:55;30.70;37.00
14877;DHT22;69691;48.172;17.070;2023-07-08T07:37:23;30.50;37.40
14877;DHT22;69691;48.172;17.070;2023-07-08T07:39:48;30.50;38.20
14877;DHT22;69691;48.172;17.070;2023-07-08T07:42:15;30.50;37.40
14877;DHT22;69691;48.172;17.070;2023-07-08T07:44:45;30.60;37.20
14877;DHT22;69691;48.172;17.070;2023-07-08T07:47:11;30.60;37.30
14877;DHT22;69691;48.172;17.070;2023-07-08T07:49:37;30.80;37.20
14877;DHT22;69691;48.172;17.070;2023-07-08T07:52:04;30.60;36.70
14877;DHT22;69691;48.172;17.070;2023-07-08T07:54:30;30.50;37.00
14877;DHT22;69691;48.172;17.070;2023-07-08T07:56:56;30.70;37.40
14877;DHT22;69691;48.172;17.070;2023-07-08T07:59:22;30.90;36.20
14877;DHT22;69691;48.172;17.070;2023-07-08T08:01:48;30.90;36.50
14877;DHT22;69691;48.172;17.070;2023-07-08T08:04:14;30.80;36.50
14877;DHT22;69691;48.172;17.070;2023-07-08T08:06:40;30.60;36.70
14877;DHT22;69691;48.172;17.070;2023-07-08T08:09:07;30.70;37.30
14877;DHT22;69691;48.172;17.070;2023-07-08T08:11:33;30.80;36.90
14877;DHT22;69691;48.172;17.070;2023-07-08T08:14:00;30.90;36.70
14877;DHT22;69691;48.172;17.070;2023-07-08T08:16:26;31.00;36.50
14877;DHT22;69691;48.172;17.070;2023-07-08T08:18:52;30.70;36.70
14877;DHT22;69691;48.172;17.070;2023-07-08T08:21:17;30.40;36.50
14877;DHT22;69691;48.172;17.070;2023-07-08T08:23:43;30.10;37.00
14877;DHT22;69691;48.172;17.070;2023-07-08T08:26:09;30.00;37.30
14877;DHT22;69691;48.172;17.070;2023-07-08T08:28:35;29.90;37.90
14877;DHT22;69691;48.172;17.070;2023-07-08T08:31:01;29.90;37.90
14877;DHT22;69691;48.172;17.070;2023-07-08T08:33:26;30.00;38.00
14877;DHT22;69691;48.172;17.070;2023-07-08T08:35:52;30.00;37.70
14877;DHT22;69691;48.172;17.070;2023-07-08T08:38:18;29.80;37.50
14877;DHT22;69691;48.172;17.070;2023-07-08T08:40:44;29.70;37.80
14877;DHT22;69691;48.172;17.070;2023-07-08T08:43:22;29.70;38.20
14877;DHT22;69691;48.172;17.070;2023-07-08T08:46:14;29.60;38.40
14877;DHT22;69691;48.172;17.070;2023-07-08T08:51:47;29.40;39.10
14877;DHT22;69691;48.172;17.070;2023-07-08T08:54:14;29.40;39.40
14877;DHT22;69691;48.172;17.070;2023-07-08T08:59:53;29.00;39.50
14877;DHT22;69691;48.172;17.070;2023-07-08T09:02:35;28.80;40.50
14877;DHT22;69691;48.172;17.070;2023-07-08T09:05:07;28.60;40.60
14877;DHT22;69691;48.172;17.070;2023-07-08T09:13:39;28.50;41.30
14877;DHT22;69691;48.172;17.070;2023-07-08T09:19:04;28.70;41.00
14877;DHT22;69691;48.172;17.070;2023-07-08T09:21:41;28.70;40.40
14877;DHT22;69691;48.172;17.070;2023-07-08T09:27:04;28.50;40.90
14877;DHT22;69691;48.172;17.070;2023-07-08T09:29:31;28.50;41.60
14877;DHT22;69691;48.172;17.070;2023-07-08T09:31:58;28.50;41.10
14877;DHT22;69691;48.172;17.070;2023-07-08T09:34:41;28.50;41.00
14877;DHT22;69691;48.172;17.070;2023-07-08T09:37:39;28.60;41.30
14877;DHT22;69691;48.172;17.070;2023-07-08T09:40:29;28.70;41.10
14877;DHT22;69691;48.172;17.070;2023-07-08T09:43:33;28.80;39.70
14877;DHT22;69691;48.172;17.070;2023-07-08T09:46:02;28.70;40.00
14877;DHT22;69691;48.172;17.070;2023-07-08T09:48:36;28.70;39.70
14877;DHT22;69691;48.172;17.070;2023-07-08T09:51:03;28.70;40.60
14877;DHT22;69691;48.172;17.070;2023-07-08T09:53:29;28.80;40.20
14877;DHT22;69691;48.172;17.070;2023-07-08T09:55:58;28.90;39.80
14877;DHT22;69691;48.172;17.070;2023-07-08T09:58:34;29.10;39.60
14877;DHT22;69691;48.172;17.070;2023-07-08T10:01:11;29.20;40.00
14877;DHT22;69691;48.172;17.070;2023-07-08T10:03:39;29.30;38.30
14877;DHT22;69691;48.172;17.070;2023-07-08T10:06:17;29.30;36.50
14877;DHT22;69691;48.172;17.070;2023-07-08T10:08:44;29.40;36.50
14877;DHT22;69691;48.172;17.070;2023-07-08T10:13:45;29.50;35.40
14877;DHT22;69691;48.172;17.070;2023-07-08T10:18:51;29.50;35.10
14877;DHT22;69691;48.172;17.070;2023-07-08T10:21:29;29.50;35.40
14877;DHT22;69691;48.172;17.070;2023-07-08T10:24:11;29.50;34.50
14877;DHT22;69691;48.172;17.070;2023-07-08T10:26:42;29.50;35.00
14877;DHT22;69691;48.172;17.070;2023-07-08T10:29:53;29.50;35.40
14877;DHT22;69691;48.172;17.070;2023-07-08T10:32:31;29.50;34.50
14877;DHT22;69691;48.172;17.070;2023-07-08T10:41:00;29.50;34.90
14877;DHT22;69691;48.172;17.070;2023-07-08T10:49:51;29.50;33.90
14877;DHT22;69691;48.172;17.070;2023-07-08T11:00:56;29.70;33.40
14877;DHT22;69691;48.172;17.070;2023-07-08T11:07:13;29.90;34.10
14877;DHT22;69691;48.172;17.070;2023-07-08T11:09:51;30.00;33.60
14877;DHT22;69691;48.172;17.070;2023-07-08T11:12:46;29.90;32.20
14877;DHT22;69691;48.172;17.070;2023-07-08T11:15:29;30.00;32.30
14877;DHT22;69691;48.172;17.070;2023-07-08T11:18:08;30.00;31.90
14877;DHT22;69691;48.172;17.070;2023-07-08T11:21:00;30.00;32.40
14877;DHT22;69691;48.172;17.070;2023-07-08T11:23:39;30.00;32.40
14877;DHT22;69691;48.172;17.070;2023-07-08T11:29:16;30.00;31.80
14877;DHT22;69691;48.172;17.070;2023-07-08T11:31:45;30.00;32.30
14877;DHT22;69691;48.172;17.070;2023-07-08T11:34:12;30.10;31.70
14877;DHT22;69691;48.172;17.070;2023-07-08T11:36:40;30.10;31.60
14877;DHT22;69691;48.172;17.070;2023-07-08T11:39:26;30.10;32.00
14877;DHT22;69691;48.172;17.070;2023-07-08T11:45:01;29.90;32.10
14877;DHT22;69691;48.172;17.070;2023-07-08T11:47:48;29.90;32.30
14877;DHT22;69691;48.172;17.070;2023-07-08T11:50:29;30.00;32.20
14877;DHT22;69691;48.172;17.070;2023-07-08T11:53:02;30.00;32.60
14877;DHT22;69691;48.172;17.070;2023-07-08T11:58:27;30.10;32.50
14877;DHT22;69691;48.172;17.070;2023-07-08T12:01:05;30.00;32.70
14877;DHT22;69691;48.172;17.070;2023-07-08T12:03:51;29.90;32.80
14877;DHT22;69691;48.172;17.070;2023-07-08T12:08:57;29.90;33.60
14877;DHT22;69691;48.172;17.070;2023-07-08T12:11:32;29.90;33.80
14877;DHT22;69691;48.172;17.070;2023-07-08T12:14:01;30.00;33.40
14877;DHT22;69691;48.172;17.070;2023-07-08T12:16:30;30.00;33.20
14877;DHT22;69691;48.172;17.070;2023-07-08T12:18:59;30.10;33.60
14877;DHT22;69691;48.172;17.070;2023-07-08T12:21:27;30.20;34.00
14877;DHT22;69691;48.172;17.070;2023-07-08T12:23:53;30.20;33.70
14877;DHT22;69691;48.172;17.070;2023-07-08T12:26:21;30.30;35.00
14877;DHT22;69691;48.172;17.070;2023-07-08T12:28:47;30.30;34.50
14877;DHT22;69691;48.172;17.070;2023-07-08T12:31:19;30.40;33.60
14877;DHT22;69691;48.172;17.070;2023-07-08T12:33:46;30.30;33.80
14877;DHT22;69691;48.172;17.070;2023-07-08T12:36:22;30.30;34.50
14877;DHT22;69691;48.172;17.070;2023-07-08T12:38:55;30.50;34.30
14877;DHT22;69691;48.172;17.070;2023-07-08T12:41:25;30.50;33.80
14877;DHT22;69691;48.172;17.070;2023-07-08T12:43:56;30.70;34.30
14877;DHT22;69691;48.172;17.070;2023-07-08T12:46:23;30.70;34.10
14877;DHT22;69691;48.172;17.070;2023-07-08T12:48:50;30.80;33.60
14877;DHT22;69691;48.172;17.070;2023-07-08T12:51:19;30.70;33.10
14877;DHT22;69691;48.172;17.070;2023-07-08T12:53:50;30.70;33.20
14877;DHT22;69691;48.172;17.070;2023-07-08T12:56:18;30.60;33.20
14877;DHT22;69691;48.172;17.070;2023-07-08T12:58:49;30.50;33.30
14877;DHT22;69691;48.172;17.070;2023-07-08T13:01:24;30.50;34.00
14877;DHT22;69691;48.172;17.070;2023-07-08T13:04:01;30.60;34.50
14877;DHT22;69691;48.172;17.070;2023-07-08T13:06:31;30.80;33.50
14877;DHT22;69691;48.172;17.070;2023-07-08T13:09:06;30.80;33.00
14877;DHT22;69691;48.172;17.070;2023-07-08T13:11:41;30.90;32.80
14877;DHT22;69691;48.172;17.070;2023-07-08T13:14:07;30.80;32.80
14877;DHT22;69691;48.172;17.070;2023-07-08T13:16:35;30.70;32.70
14877;DHT22;69691;48.172;17.070;2023-07-08T13:19:02;30.60;33.10
14877;DHT22;69691;48.172;17.070;2023-07-08T13:21:28;30.60;33.30
14877;DHT22;69691;48.172;17.070;2023-07-08T13:23:56;30.70;33.30
14877;DHT22;69691;48.172;17.070;2023-07-08T13:26:25;30.80;33.50
14877;DHT22;69691;48.172;17.070;2023-07-08T13:29:01;30.90;33.50
14877;DHT22;69691;48.172;17.070;2023-07-08T13:31:33;30.90;33.40
14877;DHT22;69691;48.172;17.070;2023-07-08T13:34:13;31.00;34.00
14877;DHT22;69691;48.172;17.070;2023-07-08T13:36:44;31.10;33.50
14877;DHT22;69691;48.172;17.070;2023-07-08T13:39:31;31.10;33.70
14877;DHT22;69691;48.172;17.070;2023-07-08T13:41:59;31.10;33.40
14877;DHT22;69691;48.172;17.070;2023-07-08T13:44:26;31.10;33.30
14877;DHT22;69691;48.172;17.070;2023-07-08T13:46:55;31.10;32.60
14877;DHT22;69691;48.172;17.070;2023-07-08T13:49:29;31.10;32.30
14877;DHT22;69691;48.172;17.070;2023-07-08T13:54:44;31.10;32.00
14877;DHT22;69691;48.172;17.070;2023-07-08T13:57:20;31.00;32.30
14877;DHT22;69691;48.172;17.070;2023-07-08T13:59:48;30.80;32.30
14877;DHT22;69691;48.172;17.070;2023-07-08T14:02:23;30.80;32.90
14877;DHT22;69691;48.172;17.070;2023-07-08T14:04:52;30.80;33.60
14877;DHT22;69691;48.172;17.070;2023-07-08T14:07:27;30.90;33.80
14877;DHT22;69691;48.172;17.070;2023-07-08T14:09:55;31.00;33.80
14877;DHT22;69691;48.172;17.070;2023-07-08T14:12:21;31.10;33.70
14877;DHT22;69691;48.172;17.070;2023-07-08T14:14:48;31.10;33.10
14877;DHT22;69691;48.172;17.070;2023-07-08T14:17:19;31.10;33.10
14877;DHT22;69691;48.172;17.070;2023-07-08T14:19:47;31.10;33.20
14877;DHT22;69691;48.172;17.070;2023-07-08T14:24:42;31.10;33.30
14877;DHT22;69691;48.172;17.070;2023-07-08T14:27:08;31.20;32.70
14877;DHT22;69691;48.172;17.070;2023-07-08T14:29:40;31.20;32.30
14877;DHT22;69691;48.172;17.070;2023-07-08T14:32:22;31.20;31.90
14877;DHT22;69691;48.172;17.070;2023-07-08T14:34:55;31.00;32.10
14877;DHT22;69691;48.172;17.070;2023-07-08T14:37:22;30.90;32.50
14877;DHT22;69691;48.172;17.070;2023-07-08T14:39:49;30.80;32.90
14877;DHT22;69691;48.172;17.070;2023-07-08T14:42:17;30.80;32.70
14877;DHT22;69691;48.172;17.070;2023-07-08T14:44:49;30.90;32.90
14877;DHT22;69691;48.172;17.070;2023-07-08T14:47:17;30.80;33.10
14877;DHT22;69691;48.172;17.070;2023-07-08T14:49:44;30.80;33.40
14877;DHT22;69691;48.172;17.070;2023-07-08T14:52:10;30.80;33.70
14877;DHT22;69691;48.172;17.070;2023-07-08T14:54:36;30.90;34.10
14877;DHT22;69691;48.172;17.070;2023-07-08T14:57:03;31.00;33.60
14877;DHT22;69691;48.172;17.070;2023-07-08T14:59:32;31.20;33.70
14877;DHT22;69691;48.172;17.070;2023-07-08T15:02:01;31.40;33.30
14877;DHT22;69691;48.172;17.070;2023-07-08T15:04:33;31.50;32.80
14877;DHT22;69691;48.172;17.070;2023-07-08T15:07:00;31.80;33.30
14877;DHT22;69691;48.172;17.070;2023-07-08T15:09:25;32.00;32.60
14877;DHT22;69691;48.172;17.070;2023-07-08T15:11:51;32.10;32.50
14877;DHT22;69691;48.172;17.070;2023-07-08T15:14:20;32.20;31.30
14877;DHT22;69691;48.172;17.070;2023-07-08T15:16:51;32.30;31.60
14877;DHT22;69691;48.172;17.070;2023-07-08T15:19:18;32.40;31.20
14877;DHT22;69691;48.172;17.070;2023-07-08T15:21:45;32.60;30.90
14877;DHT22;69691;48.172;17.070;2023-07-08T15:24:12;32.70;30.40
14877;DHT22;69691;48.172;17.070;2023-07-08T15:26:41;32.80;30.30
14877;DHT22;69691;48.172;17.070;2023-07-08T15:29:20;33.00;30.30
14877;DHT22;69691;48.172;17.070;2023-07-08T15:31:47;33.10;30.70
14877;DHT22;69691;48.172;17.070;2023-07-08T15:34:19;33.10;31.00
14877;DHT22;69691;48.172;17.070;2023-07-08T15:36:46;32.90;30.60
14877;DHT22;69691;48.172;17.070;2023-07-08T15:39:12;32.70;30.60
14877;DHT22;69691;48.172;17.070;2023-07-08T15:41:39;32.50;30.50
14877;DHT22;69691;48.172;17.070;2023-07-08T15:44:08;32.40;30.70
14877;DHT22;69691;48.172;17.070;2023-07-08T15:46:40;32.20;30.80
14877;DHT22;69691;48.172;17.070;2023-07-08T15:51:43;32.20;31.40
14877;DHT22;69691;48.172;17.070;2023-07-08T15:54:10;31.90;31.20
14877;DHT22;69691;48.172;17.070;2023-07-08T15:56:37;31.90;30.60
14877;DHT22;69691;48.172;17.070;2023-07-08T15:59:05;31.80;31.10
14877;DHT22;69691;48.172;17.070;2023-07-08T16:01:32;31.80;31.40
14877;DHT22;69691;48.172;17.070;2023-07-08T16:03:58;31.70;30.90
14877;DHT22;69691;48.172;17.070;2023-07-08T16:06:26;31.60;31.30
14877;DHT22;69691;48.172;17.070;2023-07-08T16:08:51;31.60;32.50
14877;DHT22;69691;48.172;17.070;2023-07-08T16:11:28;31.60;34.00
14877;DHT22;69691;48.172;17.070;2023-07-08T16:13:56;31.60;32.90
14877;DHT22;69691;48.172;17.070;2023-07-08T16:16:23;31.40;32.00
14877;DHT22;69691;48.172;17.070;2023-07-08T16:18:51;31.30;32.20
14877;DHT22;69691;48.172;17.070;2023-07-08T16:21:17;31.20;33.30
14877;DHT22;69691;48.172;17.070;2023-07-08T16:23:43;31.20;34.20
14877;DHT22;69691;48.172;17.070;2023-07-08T16:26:11;31.00;34.60
14877;DHT22;69691;48.172;17.070;2023-07-08T16:28:44;30.90;34.00
14877;DHT22;69691;48.172;17.070;2023-07-08T16:31:13;30.70;35.30
14877;DHT22;69691;48.172;17.070;2023-07-08T16:33:41;30.50;37.70
14877;DHT22;69691;48.172;17.070;2023-07-08T16:36:16;30.10;37.60
14877;DHT22;69691;48.172;17.070;2023-07-08T16:38:46;30.10;35.70
14877;DHT22;69691;48.172;17.070;2023-07-08T16:41:16;30.10;37.40